sensor_id;sensor_type;location;lat;lon;timestamp;pressure;altitude;pressure_sealevel;temperature;humidity
21547;BME280;41275;51.912;4.388;2023-06-22T00:03:36;101952.53;;;25.74;45.88
21547;BME280;41275;51.912;4.388;2023-06-22T00:08:57;101960.56;;;25.65;45.97
21547;BME280;41275;51.912;4.388;2023-06-22T00:14:18;101952.72;;;25.63;46.06
21547;BME280;41275;51.912;4.388;2023-06-22T00:19:40;101944.88;;;25.62;46.30
21547;BME280;41275;51.912;4.388;2023-06-22T00:25:01;101947.31;;;25.63;46.36
21547;BME280;41275;51.912;4.388;2023-06-22T00:30:22;101939.97;;;25.64;46.13
21547;BME280;41275;51.912;4.388;2023-06-22T00:35:44;101924.03;;;25.62;46.23
21547;BME280;41275;51.912;4.388;2023-06-22T00:41:05;101928.41;;;25.58;46.53
21547;BME280;41275;51.912;4.388;2023-06-22T00:46:26;101928.53;;;25.53;46.56
21547;BME280;41275;51.912;4.388;2023-06-22T00:51:47;101925.59;;;25.50;46.82
21547;BME280;41275;51.912;4.388;2023-06-22T00:57:13;101926.03;;;25.43;47.00
21547;BME280;41275;51.912;4.388;2023-06-22T01:02:36;101913.78;;;25.32;47.04
21547;BME280;41275;51.912;4.388;2023-06-22T01:08:29;101919.78;;;25.29;47.25
21547;BME280;41275;51.912;4.388;2023-06-22T01:19:48;101913.53;;;25.14;47.69
21547;BME280;41275;51.912;4.388;2023-06-22T01:25:19;101914.69;;;25.08;48.12
21547;BME280;41275;51.912;4.388;2023-06-22T01:30:42;101900.44;;;25.03;47.90
21547;BME280;41275;51.912;4.388;2023-06-22T01:36:04;101906.75;;;24.98;48.08
21547;BME280;41275;51.912;4.388;2023-06-22T01:41:28;101919.78;;;24.96;48.01
21547;BME280;41275;51.912;4.388;2023-06-22T01:46:50;101914.75;;;24.89;48.14
21547;BME280;41275;51.912;4.388;2023-06-22T01:52:13;101916.66;;;24.89;48.26
21547;BME280;41275;51.912;4.388;2023-06-22T01:57:34;101913.44;;;24.87;48.37
21547;BME280;41275;51.912;4.388;2023-06-22T02:03:16;101914.84;;;24.84;48.42
21547;BME280;41275;51.912;4.388;2023-06-22T02:08:47;101913.00;;;24.80;48.32
21547;BME280;41275;51.912;4.388;2023-06-22T02:14:10;101903.06;;;24.75;48.74
21547;BME280;41275;51.912;4.388;2023-06-22T02:19:36;101901.25;;;24.70;48.70
21547;BME280;41275;51.912;4.388;2023-06-22T02:24:57;101894.03;;;24.66;48.85
21547;BME280;41275;51.912;4.388;2023-06-22T02:30:19;101882.97;;;24.62;49.01
21547;BME280;41275;51.912;4.388;2023-06-22T02:35:40;101877.06;;;24.60;49.07
21547;BME280;41275;51.912;4.388;2023-06-22T02:41:06;101888.19;;;24.59;49.20
21547;BME280;41275;51.912;4.388;2023-06-22T02:46:27;101887.69;;;24.57;49.49
21547;BME280;41275;51.912;4.388;2023-06-22T02:51:49;101890.97;;;24.54;49.73
21547;BME280;41275;51.912;4.388;2023-06-22T02:57:10;101891.56;;;24.51;49.69
21547;BME280;41275;51.912;4.388;2023-06-22T03:02:34;101904.38;;;24.45;49.90
21547;BME280;41275;51.912;4.388;2023-06-22T03:07:55;101911.97;;;24.43;49.90
21547;BME280;41275;51.912;4.388;2023-06-22T03:13:16;101879.56;;;24.38;50.21
21547;BME280;41275;51.912;4.388;2023-06-22T03:18:38;101877.72;;;24.33;50.31
21547;BME280;41275;51.912;4.388;2023-06-22T03:23:59;101874.28;;;24.28;50.54
21547;BME280;41275;51.912;4.388;2023-06-22T03:29:20;101868.66;;;24.24;50.62
21547;BME280;41275;51.912;4.388;2023-06-22T03:34:41;101873.78;;;24.25;50.71
21547;BME280;41275;51.912;4.388;2023-06-22T03:40:07;101872.69;;;24.27;50.74
21547;BME280;41275;51.912;4.388;2023-06-22T03:45:28;101870.28;;;24.25;50.83
21547;BME280;41275;51.912;4.388;2023-06-22T03:50:50;101854.06;;;24.25;51.18
21547;BME280;41275;51.912;4.388;2023-06-22T03:56:11;101853.75;;;24.27;51.03
21547;BME280;41275;51.912;4.388;2023-06-22T04:01:32;101849.66;;;24.29;50.97
21547;BME280;41275;51.912;4.388;2023-06-22T04:06:53;101853.38;;;24.33;51.11
21547;BME280;41275;51.912;4.388;2023-06-22T04:12:14;101852.75;;;24.41;51.00
21547;BME280;41275;51.912;4.388;2023-06-22T04:17:36;101849.63;;;24.48;51.27
21547;BME280;41275;51.912;4.388;2023-06-22T04:22:57;101862.50;;;24.56;51.09
21547;BME280;41275;51.912;4.388;2023-06-22T04:28:18;101857.59;;;24.58;51.23
21547;BME280;41275;51.912;4.388;2023-06-22T04:33:39;101867.25;;;24.64;51.26
21547;BME280;41275;51.912;4.388;2023-06-22T04:39:01;101869.19;;;24.78;51.15
21547;BME280;41275;51.912;4.388;2023-06-22T04:44:22;101876.53;;;24.91;51.04
21547;BME280;41275;51.912;4.388;2023-06-22T04:49:47;101871.16;;;25.05;50.79
21547;BME280;41275;51.912;4.388;2023-06-22T04:55:08;101871.50;;;25.17;50.57
21547;BME280;41275;51.912;4.388;2023-06-22T05:00:30;101877.03;;;25.26;50.69
21547;BME280;41275;51.912;4.388;2023-06-22T05:05:52;101878.53;;;25.45;50.33
21547;BME280;41275;51.912;4.388;2023-06-22T05:11:13;101873.81;;;25.65;49.87
21547;BME280;41275;51.912;4.388;2023-06-22T05:16:35;101875.59;;;25.69;49.82
21547;BME280;41275;51.912;4.388;2023-06-22T05:21:57;101858.84;;;25.81;49.73
21547;BME280;41275;51.912;4.388;2023-06-22T05:27:18;101870.22;;;25.83;49.45
21547;BME280;41275;51.912;4.388;2023-06-22T05:32:39;101857.75;;;25.82;49.24
21547;BME280;41275;51.912;4.388;2023-06-22T05:38:00;101855.13;;;25.91;49.15
21547;BME280;41275;51.912;4.388;2023-06-22T05:43:22;101861.34;;;25.91;49.01
21547;BME280;41275;51.912;4.388;2023-06-22T05:48:43;101863.53;;;26.03;48.88
21547;BME280;41275;51.912;4.388;2023-06-22T05:54:04;101866.63;;;26.33;48.55
21547;BME280;41275;51.912;4.388;2023-06-22T05:59:25;101862.38;;;26.40;47.97
21547;BME280;41275;51.912;4.388;2023-06-22T06:04:47;101872.94;;;26.42;47.83
21547;BME280;41275;51.912;4.388;2023-06-22T06:10:09;101863.97;;;26.55;47.69
21547;BME280;41275;51.912;4.388;2023-06-22T06:15:31;101852.06;;;26.65;47.66
21547;BME280;41275;51.912;4.388;2023-06-22T06:20:53;101852.06;;;26.65;47.46
21547;BME280;41275;51.912;4.388;2023-06-22T06:26:14;101855.78;;;26.78;47.09
21547;BME280;41275;51.912;4.388;2023-06-22T06:31:37;101855.50;;;26.88;46.79
21547;BME280;41275;51.912;4.388;2023-06-22T06:36:58;101849.06;;;27.06;46.27
21547;BME280;41275;51.912;4.388;2023-06-22T06:42:19;101848.94;;;27.11;46.31
21547;BME280;41275;51.912;4.388;2023-06-22T06:47:41;101839.78;;;27.38;45.73
21547;BME280;41275;51.912;4.388;2023-06-22T06:53:02;101840.47;;;27.61;45.10
21547;BME280;41275;51.912;4.388;2023-06-22T06:58:23;101836.53;;;27.94;44.65
21547;BME280;41275;51.912;4.388;2023-06-22T07:03:44;101840.03;;;28.29;43.79
21547;BME280;41275;51.912;4.388;2023-06-22T07:09:05;101832.31;;;28.57;42.90
21547;BME280;41275;51.912;4.388;2023-06-22T07:14:26;101826.97;;;28.86;41.84
21547;BME280;41275;51.912;4.388;2023-06-22T07:19:48;101811.84;;;29.06;41.41
21547;BME280;41275;51.912;4.388;2023-06-22T07:25:09;101820.19;;;29.31;40.45
21547;BME280;41275;51.912;4.388;2023-06-22T07:30:31;101816.31;;;29.41;39.89
21547;BME280;41275;51.912;4.388;2023-06-22T07:35:53;101802.84;;;29.65;39.41
21547;BME280;41275;51.912;4.388;2023-06-22T07:41:14;101790.81;;;29.87;38.81
21547;BME280;41275;51.912;4.388;2023-06-22T07:46:36;101801.94;;;30.15;38.46
21547;BME280;41275;51.912;4.388;2023-06-22T07:51:57;101795.47;;;30.65;37.01
21547;BME280;41275;51.912;4.388;2023-06-22T07:57:18;101788.94;;;30.91;36.25
21547;BME280;41275;51.912;4.388;2023-06-22T08:02:41;101783.22;;;31.20;35.31
21547;BME280;41275;51.912;4.388;2023-06-22T08:08:02;101776.84;;;31.41;34.45
21547;BME280;41275;51.912;4.388;2023-06-22T08:13:23;101769.88;;;31.43;33.44
21547;BME280;41275;51.912;4.388;2023-06-22T08:18:45;101767.56;;;31.58;32.75
21547;BME280;41275;51.912;4.388;2023-06-22T08:24:06;101774.44;;;31.80;32.91
21547;BME280;41275;51.912;4.388;2023-06-22T08:29:28;101773.72;;;31.95;32.80
21547;BME280;41275;51.912;4.388;2023-06-22T08:34:49;101766.34;;;32.11;32.39
21547;BME280;41275;51.912;4.388;2023-06-22T08:40:11;101761.13;;;32.22;32.50
21547;BME280;41275;51.912;4.388;2023-06-22T08:45:32;101760.03;;;32.39;32.18
21547;BME280;41275;51.912;4.388;2023-06-22T08:50:53;101767.22;;;32.59;30.60
21547;BME280;41275;51.912;4.388;2023-06-22T08:56:14;101763.03;;;32.81;30.48
21547;BME280;41275;51.912;4.388;2023-06-22T09:01:36;101759.94;;;32.98;30.13
21547;BME280;41275;51.912;4.388;2023-06-22T09:06:57;101760.66;;;32.95;30.17
21547;BME280;41275;51.912;4.388;2023-06-22T09:12:19;101754.00;;;32.96;29.83
21547;BME280;41275;51.912;4.388;2023-06-22T09:17:42;101740.41;;;33.19;29.77
21547;BME280;41275;51.912;4.388;2023-06-22T09:23:04;101750.94;;;33.72;29.08
21547;BME280;41275;51.912;4.388;2023-06-22T09:28:25;101736.56;;;33.59;28.58
21547;BME280;41275;51.912;4.388;2023-06-22T09:33:46;101732.66;;;33.41;28.95
21547;BME280;41275;51.912;4.388;2023-06-22T09:39:08;101727.84;;;33.54;29.57
21547;BME280;41275;51.912;4.388;2023-06-22T09:44:29;101720.25;;;33.47;29.31
21547;BME280;41275;51.912;4.388;2023-06-22T09:49:50;101712.88;;;33.51;30.06
21547;BME280;41275;51.912;4.388;2023-06-22T09:55:11;101721.97;;;33.75;29.97
21547;BME280;41275;51.912;4.388;2023-06-22T10:00:33;101716.22;;;33.83;29.84
21547;BME280;41275;51.912;4.388;2023-06-22T10:06:10;101730.41;;;33.85;29.80
21547;BME280;41275;51.912;4.388;2023-06-22T10:11:31;101726.50;;;33.86;29.27
21547;BME280;41275;51.912;4.388;2023-06-22T10:16:52;101732.94;;;33.75;29.64
21547;BME280;41275;51.912;4.388;2023-06-22T10:22:14;101730.88;;;33.49;30.83
21547;BME280;41275;51.912;4.388;2023-06-22T10:27:35;101735.88;;;33.27;30.89
21547;BME280;41275;51.912;4.388;2023-06-22T10:32:56;101724.59;;;33.13;30.64
21547;BME280;41275;51.912;4.388;2023-06-22T10:38:18;101722.72;;;32.97;30.91
21547;BME280;41275;51.912;4.388;2023-06-22T10:43:39;101739.41;;;32.92;31.42
21547;BME280;41275;51.912;4.388;2023-06-22T10:49:00;101733.50;;;32.74;30.71
21547;BME280;41275;51.912;4.388;2023-06-22T10:54:21;101737.38;;;32.73;30.73
21547;BME280;41275;51.912;4.388;2023-06-22T10:59:42;101741.47;;;32.80;31.79
21547;BME280;41275;51.912;4.388;2023-06-22T11:05:04;101740.13;;;32.73;32.08
21547;BME280;41275;51.912;4.388;2023-06-22T11:10:25;101744.28;;;32.99;31.99
21547;BME280;41275;51.912;4.388;2023-06-22T11:15:47;101739.84;;;33.10;31.59
21547;BME280;41275;51.912;4.388;2023-06-22T11:21:09;101729.78;;;32.98;31.47
21547;BME280;41275;51.912;4.388;2023-06-22T11:26:30;101722.06;;;33.04;31.61
21547;BME280;41275;51.912;4.388;2023-06-22T11:31:52;101728.44;;;32.92;32.04
21547;BME280;41275;51.912;4.388;2023-06-22T11:37:13;101706.88;;;32.91;32.32
21547;BME280;41275;51.912;4.388;2023-06-22T11:42:36;101691.91;;;32.88;32.20
21547;BME280;41275;51.912;4.388;2023-06-22T11:47:57;101694.19;;;32.67;32.39
21547;BME280;41275;51.912;4.388;2023-06-22T11:53:18;101681.72;;;32.54;32.95
21547;BME280;41275;51.912;4.388;2023-06-22T11:58:39;101671.91;;;32.37;33.20
21547;BME280;41275;51.912;4.388;2023-06-22T12:04:01;101665.84;;;32.43;33.23
21547;BME280;41275;51.912;4.388;2023-06-22T12:09:22;101672.38;;;32.23;33.85
21547;BME280;41275;51.912;4.388;2023-06-22T12:14:43;101658.50;;;32.16;33.35
21547;BME280;41275;51.912;4.388;2023-06-22T12:20:05;101663.00;;;32.24;33.14
21547;BME280;41275;51.912;4.388;2023-06-22T12:25:27;101647.19;;;32.17;33.85
21547;BME280;41275;51.912;4.388;2023-06-22T12:30:48;101641.09;;;32.24;33.64
21547;BME280;41275;51.912;4.388;2023-06-22T12:36:09;101638.78;;;32.26;33.94
21547;BME280;41275;51.912;4.388;2023-06-22T12:41:30;101630.81;;;32.37;33.56
21547;BME280;41275;51.912;4.388;2023-06-22T12:46:51;101640.72;;;32.25;34.02
21547;BME280;41275;51.912;4.388;2023-06-22T12:52:12;101638.69;;;32.22;34.20
21547;BME280;41275;51.912;4.388;2023-06-22T12:57:34;101641.78;;;32.05;34.22
21547;BME280;41275;51.912;4.388;2023-06-22T13:02:55;101648.75;;;32.02;34.06
21547;BME280;41275;51.912;4.388;2023-06-22T13:08:16;101646.66;;;31.96;34.02
21547;BME280;41275;51.912;4.388;2023-06-22T13:13:38;101639.84;;;31.90;35.09
21547;BME280;41275;51.912;4.388;2023-06-22T13:18:59;101642.34;;;31.67;36.02
21547;BME280;41275;51.912;4.388;2023-06-22T13:24:21;101638.09;;;31.53;36.83
21547;BME280;41275;51.912;4.388;2023-06-22T13:29:42;101630.66;;;31.54;37.10
21547;BME280;41275;51.912;4.388;2023-06-22T13:35:03;101636.09;;;31.38;37.83
21547;BME280;41275;51.912;4.388;2023-06-22T13:40:24;101626.66;;;31.36;38.43
21547;BME280;41275;51.912;4.388;2023-06-22T13:45:46;101624.72;;;31.24;39.45
21547;BME280;41275;51.912;4.388;2023-06-22T13:51:07;101624.91;;;31.03;39.57
21547;BME280;41275;51.912;4.388;2023-06-22T13:56:28;101620.25;;;31.03;40.10
21547;BME280;41275;51.912;4.388;2023-06-22T14:01:49;101621.75;;;31.01;40.65
21547;BME280;41275;51.912;4.388;2023-06-22T14:07:11;101612.56;;;30.93;41.20
21547;BME280;41275;51.912;4.388;2023-06-22T14:12:32;101610.97;;;30.80;41.63
21547;BME280;41275;51.912;4.388;2023-06-22T14:17:53;101606.44;;;30.60;42.14
21547;BME280;41275;51.912;4.388;2023-06-22T14:23:15;101609.72;;;30.53;42.61
21547;BME280;41275;51.912;4.388;2023-06-22T14:28:36;101621.94;;;30.43;42.74
21547;BME280;41275;51.912;4.388;2023-06-22T14:33:57;101621.69;;;30.36;43.45
21547;BME280;41275;51.912;4.388;2023-06-22T14:39:18;101627.72;;;30.17;44.00
21547;BME280;41275;51.912;4.388;2023-06-22T14:44:41;101642.00;;;30.02;44.64
21547;BME280;41275;51.912;4.388;2023-06-22T14:50:02;101642.22;;;29.97;44.88
21547;BME280;41275;51.912;4.388;2023-06-22T14:55:24;101643.56;;;29.91;44.96
21547;BME280;41275;51.912;4.388;2023-06-22T15:00:45;101637.66;;;29.89;44.89
21547;BME280;41275;51.912;4.388;2023-06-22T15:06:08;101626.84;;;29.80;45.50
21547;BME280;41275;51.912;4.388;2023-06-22T15:11:29;101618.53;;;29.76;45.73
21547;BME280;41275;51.912;4.388;2023-06-22T15:16:51;101621.28;;;29.89;45.69
21547;BME280;41275;51.912;4.388;2023-06-22T15:22:12;101619.00;;;29.91;46.14
21547;BME280;41275;51.912;4.388;2023-06-22T15:27:33;101605.84;;;30.05;46.19
21547;BME280;41275;51.912;4.388;2023-06-22T15:32:55;101602.78;;;30.06;46.08
21547;BME280;41275;51.912;4.388;2023-06-22T15:38:16;101606.75;;;30.09;46.30
21547;BME280;41275;51.912;4.388;2023-06-22T15:43:37;101607.09;;;30.07;46.41
21547;BME280;41275;51.912;4.388;2023-06-22T15:48:58;101609.91;;;29.87;46.36
21547;BME280;41275;51.912;4.388;2023-06-22T15:54:19;101615.13;;;29.79;46.37
21547;BME280;41275;51.912;4.388;2023-06-22T15:59:41;101619.53;;;29.59;46.07
21547;BME280;41275;51.912;4.388;2023-06-22T16:05:02;101624.91;;;29.26;45.49
21547;BME280;41275;51.912;4.388;2023-06-22T16:10:24;101618.09;;;29.20;45.06
21547;BME280;41275;51.912;4.388;2023-06-22T16:15:45;101611.03;;;29.19;45.16
21547;BME280;41275;51.912;4.388;2023-06-22T16:21:07;101609.00;;;29.16;45.11
21547;BME280;41275;51.912;4.388;2023-06-22T16:26:30;101594.09;;;29.14;45.68
21547;BME280;41275;51.912;4.388;2023-06-22T16:31:51;101597.59;;;29.14;45.38
21547;BME280;41275;51.912;4.388;2023-06-22T16:37:13;101588.63;;;29.14;45.40
21547;BME280;41275;51.912;4.388;2023-06-22T16:42:34;101605.19;;;29.08;45.03
21547;BME280;41275;51.912;4.388;2023-06-22T16:47:55;101611.81;;;29.20;44.65
21547;BME280;41275;51.912;4.388;2023-06-22T16:53:17;101615.19;;;29.04;44.46
21547;BME280;41275;51.912;4.388;2023-06-22T16:58:40;101615.19;;;29.04;44.64
21547;BME280;41275;51.912;4.388;2023-06-22T17:04:06;101619.81;;;29.04;44.72
21547;BME280;41275;51.912;4.388;2023-06-22T17:09:29;101630.84;;;29.07;44.62
21547;BME280;41275;51.912;4.388;2023-06-22T17:14:52;101637.56;;;29.10;44.52
21547;BME280;41275;51.912;4.388;2023-06-22T17:20:13;101643.00;;;29.10;44.61
21547;BME280;41275;51.912;4.388;2023-06-22T17:25:35;101649.41;;;29.14;44.49
21547;BME280;41275;51.912;4.388;2023-06-22T17:31:09;101663.16;;;28.88;45.24
21547;BME280;41275;51.912;4.388;2023-06-22T17:36:39;101652.84;;;29.02;45.35
21547;BME280;41275;51.912;4.388;2023-06-22T17:42:01;101652.13;;;29.14;45.21
21547;BME280;41275;51.912;4.388;2023-06-22T17:47:23;101654.78;;;29.23;45.38
21547;BME280;41275;51.912;4.388;2023-06-22T17:52:54;101655.19;;;29.13;45.04
21547;BME280;41275;51.912;4.388;2023-06-22T17:58:16;101665.19;;;29.00;45.12
21547;BME280;41275;51.912;4.388;2023-06-22T18:03:38;101667.63;;;28.93;45.20
21547;BME280;41275;51.912;4.388;2023-06-22T18:09:00;101675.84;;;28.84;44.63
21547;BME280;41275;51.912;4.388;2023-06-22T18:14:23;101688.94;;;28.91;44.59
21547;BME280;41275;51.912;4.388;2023-06-22T18:19:45;101675.13;;;29.04;44.28
21547;BME280;41275;51.912;4.388;2023-06-22T18:25:08;101676.72;;;29.26;43.49
21547;BME280;41275;51.912;4.388;2023-06-22T18:30:31;101685.06;;;29.00;42.96
21547;BME280;41275;51.912;4.388;2023-06-22T18:35:53;101690.81;;;28.78;43.35
21547;BME280;41275;51.912;4.388;2023-06-22T18:41:22;101687.13;;;28.74;43.40
21547;BME280;41275;51.912;4.388;2023-06-22T18:46:44;101694.97;;;28.75;43.20
21547;BME280;41275;51.912;4.388;2023-06-22T18:52:13;101697.44;;;28.59;43.31
21547;BME280;41275;51.912;4.388;2023-06-22T18:57:35;101695.22;;;28.53;43.67
21547;BME280;41275;51.912;4.388;2023-06-22T19:02:58;101696.25;;;28.31;43.17
21547;BME280;41275;51.912;4.388;2023-06-22T19:08:19;101705.47;;;28.00;43.52
21547;BME280;41275;51.912;4.388;2023-06-22T19:13:46;101711.75;;;27.83;43.45
21547;BME280;41275;51.912;4.388;2023-06-22T19:19:12;101714.25;;;27.62;43.65
21547;BME280;41275;51.912;4.388;2023-06-22T19:24:48;101708.84;;;27.36;44.29
21547;BME280;41275;51.912;4.388;2023-06-22T19:30:11;101725.94;;;27.20;44.40
21547;BME280;41275;51.912;4.388;2023-06-22T19:35:34;101729.00;;;26.96;44.79
21547;BME280;41275;51.912;4.388;2023-06-22T19:40:56;101739.81;;;26.78;44.76
21547;BME280;41275;51.912;4.388;2023-06-22T19:46:28;101757.03;;;26.65;45.31
21547;BME280;41275;51.912;4.388;2023-06-22T19:51:49;101766.50;;;26.45;45.61
21547;BME280;41275;51.912;4.388;2023-06-22T19:57:10;101761.63;;;26.33;45.79
21547;BME280;41275;51.912;4.388;2023-06-22T20:02:32;101777.34;;;26.23;46.10
21547;BME280;41275;51.912;4.388;2023-06-22T20:07:53;101781.38;;;26.03;46.48
21547;BME280;41275;51.912;4.388;2023-06-22T20:13:19;101776.16;;;25.92;46.60
21547;BME280;41275;51.912;4.388;2023-06-22T20:18:45;101801.50;;;25.88;46.88
21547;BME280;41275;51.912;4.388;2023-06-22T20:24:07;101816.59;;;25.80;46.82
21547;BME280;41275;51.912;4.388;2023-06-22T20:29:31;101820.72;;;25.64;47.09
21547;BME280;41275;51.912;4.388;2023-06-22T20:34:53;101809.78;;;25.55;47.19
21547;BME280;41275;51.912;4.388;2023-06-22T20:40:15;101810.59;;;25.42;47.44
21547;BME280;41275;51.912;4.388;2023-06-22T20:45:36;101807.59;;;25.30;47.60
21547;BME280;41275;51.912;4.388;2023-06-22T20:50:57;101811.72;;;25.27;48.17
21547;BME280;41275;51.912;4.388;2023-06-22T20:56:18;101821.63;;;25.18;48.25
21547;BME280;41275;51.912;4.388;2023-06-22T21:01:40;101818.84;;;25.09;48.64
21547;BME280;41275;51.912;4.388;2023-06-22T21:07:01;101824.13;;;25.01;49.05
21547;BME280;41275;51.912;4.388;2023-06-22T21:12:22;101835.03;;;24.95;48.93
21547;BME280;41275;51.912;4.388;2023-06-22T21:17:46;101846.97;;;24.94;49.08
21547;BME280;41275;51.912;4.388;2023-06-22T21:23:07;101837.94;;;24.85;49.12
21547;BME280;41275;51.912;4.388;2023-06-22T21:28:29;101836.50;;;24.74;49.10
21547;BME280;41275;51.912;4.388;2023-06-22T21:33:50;101866.16;;;24.65;49.30
21547;BME280;41275;51.912;4.388;2023-06-22T21:39:11;101867.06;;;24.61;49.48
21547;BME280;41275;51.912;4.388;2023-06-22T21:44:32;101871.81;;;24.50;49.44
21547;BME280;41275;51.912;4.388;2023-06-22T21:49:53;101880.25;;;24.48;49.42
21547;BME280;41275;51.912;4.388;2023-06-22T21:55:15;101878.38;;;24.44;49.58
21547;BME280;41275;51.912;4.388;2023-06-22T22:00:36;101880.94;;;24.35;49.46
21547;BME280;41275;51.912;4.388;2023-06-22T22:05:57;101895.91;;;24.28;49.64
21547;BME280;41275;51.912;4.388;2023-06-22T22:11:18;101896.31;;;24.21;49.41
21547;BME280;41275;51.912;4.388;2023-06-22T22:16:40;101902.06;;;24.14;49.72
21547;BME280;41275;51.912;4.388;2023-06-22T22:22:01;101898.03;;;24.12;49.64
21547;BME280;41275;51.912;4.388;2023-06-22T22:27:24;101913.25;;;24.08;49.84
21547;BME280;41275;51.912;4.388;2023-06-22T22:32:46;101917.63;;;24.04;49.45
21547;BME280;41275;51.912;4.388;2023-06-22T22:38:07;101915.78;;;23.99;49.48
21547;BME280;41275;51.912;4.388;2023-06-22T22:43:28;101920.09;;;24.00;49.17
21547;BME280;41275;51.912;4.388;2023-06-22T22:48:50;101927.41;;;23.99;48.81
21547;BME280;41275;51.912;4.388;2023-06-22T22:54:11;101940.94;;;23.99;48.99
21547;BME280;41275;51.912;4.388;2023-06-22T22:59:32;101929.88;;;23.96;48.71
21547;BME280;41275;51.912;4.388;2023-06-22T23:04:54;101941.78;;;23.95;48.74
21547;BME280;41275;51.912;4.388;2023-06-22T23:10:16;101951.84;;;23.89;48.82
21547;BME280;41275;51.912;4.388;2023-06-22T23:15:38;101960.03;;;23.84;48.67
21547;BME280;41275;51.912;4.388;2023-06-22T23:20:59;101958.50;;;23.78;48.87
21547;BME280;41275;51.912;4.388;2023-06-22T23:26:20;101958.75;;;23.76;48.96
21547;BME280;41275;51.912;4.388;2023-06-22T23:31:41;101966.38;;;23.74;49.14
21547;BME280;41275;51.912;4.388;2023-06-22T23:37:03;101972.09;;;23.68;48.98
21547;BME280;41275;51.912;4.388;2023-06-22T23:42:24;101975.91;;;23.62;49.57
21547;BME280;41275;51.912;4.388;2023-06-22T23:47:47;101994.09;;;23.56;49.83
21547;BME280;41275;51.912;4.388;2023-06-22T23:53:08;101993.06;;;23.52;50.04
21547;BME280;41275;51.912;4.388;2023-06-22T23:58:30;101998.50;;;23.47;49.71
